Terminal Aerodrome Forecast
Issued by NWS

Home | Current Version | Previous Version | Text Only | Print | Product List | Glossary On
Versions: 1 2 3 4 5 6 7 8 9 10 11 12 13
000
FTUS41 KCLE 062342
TAFFDY
TAF
KFDY 062342Z 0700/0724 18008KT P6SM SCT250
     FM070900 21007KT P6SM SCT100 BKN250
     FM071400 23012KT 4SM -SHRA BR OVC015
     FM072000 30008KT 3SM -SHRA BR OVC007
     FM072200 01010KT 4SM -SHRA BR OVC015=

USA.gov is the U.S. government's official web portal to all federal, state and local government web resources and services.